This is the latest recevied weather packets stored in our database for station/object SV9TNF-1. If no packets are shown the sender has not sent any weather packets the latest 10 day(s).
| Time | Temp. | Humidity | Pressure | Rain* | Wind** | Luminosity | Snow |
|---|---|---|---|---|---|---|---|
| 1778028916 | 16.67° C | 40% | 1004.1 hPa | 0 mm | 6.71 m/s, 310° | - | - |
| 1778028616 | 16.67° C | 39% | 1004.1 hPa | 0 mm | 7.15 m/s, 315° | - | - |
| 1778028316 | 16.67° C | 40% | 1004.1 hPa | 0 mm | 10.28 m/s, 316° | - | - |
| 1778028016 | 16.67° C | 44% | 1004.1 hPa | 0 mm | 10.28 m/s, 345° | - | - |
| 1778027715 | 16.67° C | 43% | 1004.1 hPa | 0 mm | 13.41 m/s, 332° | - | - |
| 1778027416 | 16.67° C | 41% | 1004.1 hPa | 0 mm | 14.31 m/s, 341° | - | - |
| 1778027116 | 16.67° C | 42% | 1004.1 hPa | 0 mm | 14.31 m/s, 350° | - | - |
| 1778026815 | 16.67° C | 40% | 1004.1 hPa | 0 mm | 12.07 m/s, 327° | - | - |
| 1778026515 | 17.78° C | 36% | 1004.1 hPa | 0 mm | 12.52 m/s, 345° | - | - |
| 1778026215 | 17.78° C | 32% | 1004.1 hPa | 0 mm | 6.26 m/s, 313° | - | - |
| 1778025915 | 17.78° C | 33% | 1004.1 hPa | 0 mm | 7.15 m/s, 278° | - | - |
| 1778025615 | 17.22° C | 36% | 1004.1 hPa | 0 mm | 8.05 m/s, 338° | - | - |
| 1778025315 | 17.78° C | 34% | 1004.1 hPa | 0 mm | 7.15 m/s, 345° | - | - |
| 1778025014 | 17.78° C | 33% | 1004.1 hPa | 0 mm | 5.81 m/s, 324° | - | - |
| 1778024714 | 17.78° C | 33% | 1004.1 hPa | 0 mm | 5.81 m/s, 323° | - | - |
| 1778024414 | 17.78° C | 33% | 1004.1 hPa | 0 mm | 5.81 m/s, 318° | - | - |
| 1778024114 | 17.78° C | 33% | 1004.1 hPa | 0 mm | 6.26 m/s, 319° | - | - |
| 1778023814 | 17.78° C | 33% | 1004.1 hPa | 0 mm | 8.05 m/s, 306° | - | - |
| 1778023515 | 17.22° C | 36% | 1004.1 hPa | 0 mm | 10.28 m/s, 331° | - | - |
| 1778023214 | 17.78° C | 35% | 1004.1 hPa | 0 mm | 8.49 m/s, 294° | - | - |
| 1778022914 | 17.78° C | 35% | 1004.1 hPa | 0 mm | 8.94 m/s, 319° | - | - |
| 1778022614 | 17.78° C | 35% | 1004.7 hPa | 0 mm | 8.94 m/s, 288° | - | - |
| 1778022314 | 17.78° C | 37% | 1004.7 hPa | 0 mm | 9.83 m/s, 329° | - | - |
| 1778022014 | 17.22° C | 37% | 1004.7 hPa | 0 mm | 10.28 m/s, 304° | - | - |
| 1778021714 | 17.22° C | 37% | 1004.7 hPa | 0 mm | 8.94 m/s, 350° | - | - |
* Rain latest hour (hover to see other rain measurements)
** Current wind speed in m/s (hover to see current wind gust speed)